Time;durP1;ratioP1;P1;durP2;ratioP2;P2;SDS_P1;SDS_P2;PMS_P1;PMS_P2;Temp;Humidity;BMP_temperature;BMP_pressure;BME280_temperature;BME280_humidity;BME280_pressure;Samples;Min_cycle;Max_cycle;Signal;HPM_P1;HPM_P2
2022/11/21 00:00:53;;;;;;;27.27;5.00;;;;;;;6.47;100.00;98874.06;4896080;29;20103;-88
2022/11/21 00:03:19;;;;;;;28.30;4.45;;;;;;;6.50;100.00;98879.00;4880459;29;20047;-89
2022/11/21 00:05:46;;;;;;;22.05;4.75;;;;;;;6.55;100.00;98871.50;4881013;29;20461;-88
2022/11/21 00:08:15;;;;;;;30.95;5.10;;;;;;;6.56;100.00;98861.81;4883092;29;20036;-89
2022/11/21 00:10:41;;;;;;;22.52;4.40;;;;;;;6.57;100.00;98864.28;4883328;29;20393;-89
2022/11/21 00:13:12;;;;;;;24.45;4.78;;;;;;;6.60;100.00;98857.06;4882881;29;20037;-90
2022/11/21 00:15:38;;;;;;;28.67;4.22;;;;;;;6.58;100.00;98844.09;4880552;29;20669;-89
2022/11/21 00:18:04;;;;;;;24.27;4.25;;;;;;;6.58;100.00;98833.59;4882390;29;20044;-88
2022/11/21 00:20:31;;;;;;;29.67;4.80;;;;;;;6.62;100.00;98807.84;4868510;29;20039;-89
2022/11/21 00:22:56;;;;;;;25.02;5.00;;;;;;;6.66;100.00;98801.28;4897752;29;20048;-89
2022/11/21 00:25:22;;;;;;;29.92;4.68;;;;;;;6.68;100.00;98787.03;4883759;29;20040;-89
2022/11/21 00:27:48;;;;;;;21.40;4.43;;;;;;;6.73;100.00;98776.06;4896729;29;20074;-89
2022/11/21 00:30:14;;;;;;;20.35;3.67;;;;;;;6.77;100.00;98766.06;4854302;29;20033;-89
2022/11/21 00:32:40;;;;;;;25.48;4.97;;;;;;;6.85;100.00;98773.13;4864083;29;20040;-89
2022/11/21 00:35:06;;;;;;;24.48;3.53;;;;;;;6.90;100.00;98771.66;4879677;29;20066;-88
2022/11/21 00:37:32;;;;;;;31.48;3.53;;;;;;;6.89;100.00;98759.50;4877744;29;20025;-89
2022/11/21 00:39:58;;;;;;;20.17;3.95;;;;;;;6.93;100.00;98762.59;4892670;29;20502;-89
2022/11/21 00:42:24;;;;;;;20.40;3.17;;;;;;;6.94;100.00;98749.31;4864208;29;20033;-87
2022/11/21 00:44:50;;;;;;;19.38;3.33;;;;;;;6.94;100.00;98730.94;4896677;29;20504;-89
2022/11/21 00:47:16;;;;;;;29.88;3.85;;;;;;;6.99;100.00;98716.50;4873921;29;20028;-88
2022/11/21 00:49:41;;;;;;;19.73;4.18;;;;;;;7.02;100.00;98706.50;4865444;29;20029;-89
2022/11/21 00:52:07;;;;;;;24.83;4.28;;;;;;;7.04;100.00;98706.34;4879435;29;20064;-89
2022/11/21 00:54:33;;;;;;;25.50;4.05;;;;;;;7.07;100.00;98698.91;4876597;29;20041;-89
2022/11/21 00:56:59;;;;;;;22.90;4.35;;;;;;;7.14;100.00;98693.84;4896617;29;20040;-89
2022/11/21 00:59:24;;;;;;;17.38;3.75;;;;;;;7.19;100.00;98683.66;4892463;29;20037;-90
2022/11/21 01:01:50;;;;;;;23.15;4.57;;;;;;;7.24;100.00;98675.28;4864966;29;20039;-89
2022/11/21 01:04:16;;;;;;;26.67;3.47;;;;;;;7.26;100.00;98668.03;4862702;29;20044;-89
2022/11/21 01:06:41;;;;;;;23.20;3.45;;;;;;;7.31;100.00;98655.22;4895463;29;20032;-88
2022/11/21 01:09:07;;;;;;;21.02;4.00;;;;;;;7.35;100.00;98662.75;4879054;29;20041;-89
2022/11/21 01:11:33;;;;;;;22.70;3.17;;;;;;;7.36;100.00;98644.19;4880932;29;20561;-89
2022/11/21 01:13:59;;;;;;;24.98;3.75;;;;;;;7.36;100.00;98632.88;4865442;29;20028;-89
2022/11/21 01:16:27;;;;;;;24.58;4.15;;;;;;;7.43;100.00;98615.44;4865315;29;20044;-90
2022/11/21 01:18:52;;;;;;;24.67;4.47;;;;;;;7.43;100.00;98600.50;4881451;29;20044;-89
2022/11/21 01:21:24;;;;;;;21.02;3.97;;;;;;;7.45;100.00;98584.53;4896091;29;20107;-89
2022/11/21 01:23:50;;;;;;;28.50;4.53;;;;;;;7.45;100.00;98566.13;4889566;29;20033;-88
2022/11/21 01:26:19;;;;;;;25.05;5.18;;;;;;;7.48;100.00;98551.81;4880743;29;20385;-90
2022/11/21 01:28:45;;;;;;;31.60;5.07;;;;;;;7.48;100.00;98536.06;4858722;29;20052;-89
2022/11/21 01:31:23;;;;;;;33.28;4.78;;;;;;;7.51;100.00;98512.88;4875692;29;20036;-89
2022/11/21 01:33:48;;;;;;;36.13;6.05;;;;;;;7.52;100.00;98496.09;4881407;29;20072;-89
2022/11/21 01:36:18;;;;;;;32.60;4.57;;;;;;;7.57;100.00;98482.44;4860620;29;20057;-89
2022/11/21 01:38:47;;;;;;;33.33;4.90;;;;;;;7.59;100.00;98461.22;4875933;29;20028;-89
2022/11/21 01:41:16;;;;;;;28.23;4.78;;;;;;;7.59;100.00;98451.53;4879753;29;20029;-88
2022/11/21 01:43:42;;;;;;;37.15;7.03;;;;;;;7.62;100.00;98445.09;4864952;29;20028;-88
2022/11/21 01:46:08;;;;;;;34.33;5.13;;;;;;;7.61;100.00;98439.06;4877315;29;20549;-89
2022/11/21 01:48:58;;;;;;;38.78;5.85;;;;;;;7.67;100.00;98434.88;4894170;29;20111;-88
2022/11/21 01:51:30;;;;;;;36.25;5.47;;;;;;;7.70;100.00;98431.91;4880080;29;20029;-89
2022/11/21 01:54:23;;;;;;;41.78;5.35;;;;;;;7.75;100.00;98423.50;4909426;29;20056;-90
2022/11/21 01:57:13;;;;;;;42.75;5.75;;;;;;;7.77;100.00;98414.41;4880099;29;20048;-91
2022/11/21 01:59:46;;;;;;;43.92;5.78;;;;;;;7.82;100.00;98414.72;4877328;29;20089;-88
2022/11/21 02:02:16;;;;;;;48.92;5.05;;;;;;;7.90;100.00;98413.03;4885923;29;20033;-89
2022/11/21 02:04:43;;;;;;;34.47;5.07;;;;;;;7.91;100.00;98410.22;4857690;29;20493;-89
2022/11/21 02:07:11;;;;;;;51.38;6.18;;;;;;;7.97;100.00;98405.22;4870108;29;20036;-90
2022/11/21 02:09:40;;;;;;;47.38;6.43;;;;;;;7.98;100.00;98412.13;4864777;29;20135;-89
2022/11/21 02:12:20;;;;;;;46.80;6.57;;;;;;;8.01;100.00;98388.09;4892658;29;20037;-89
2022/11/21 02:14:46;;;;;;;45.60;6.75;;;;;;;7.99;100.00;98380.38;4879905;29;20040;-89
2022/11/21 02:17:12;;;;;;;47.00;6.32;;;;;;;8.03;100.00;98379.03;4896454;29;20033;-90
2022/11/21 02:20:14;;;;;;;39.90;4.00;;;;;;;8.08;100.00;98365.34;4879904;29;20040;-89
2022/11/21 02:23:01;;;;;;;42.78;4.97;;;;;;;8.07;100.00;98353.97;4893052;29;20060;-89
2022/11/21 02:25:40;;;;;;;34.15;5.53;;;;;;;8.11;100.00;98351.81;4893966;29;20037;-88
2022/11/21 02:28:13;;;;;;;53.00;6.43;;;;;;;8.17;100.00;98323.97;4891119;29;20037;-89
2022/11/21 02:30:40;;;;;;;38.80;5.50;;;;;;;8.16;100.00;98290.75;4859393;29;20130;-89
2022/11/21 02:33:07;;;;;;;33.20;5.07;;;;;;;8.18;100.00;98275.59;4894971;29;20533;-89
2022/11/21 02:35:33;;;;;;;41.97;5.60;;;;;;;8.21;100.00;98271.78;4879815;29;20044;-90
2022/11/21 02:38:05;;;;;;;45.83;6.47;;;;;;;8.23;100.00;98257.44;4878900;29;20487;-88
2022/11/21 02:40:35;;;;;;;31.85;4.10;;;;;;;8.24;100.00;98251.19;4863730;29;20033;-89
2022/11/21 02:43:14;;;;;;;34.45;4.75;;;;;;;8.25;100.00;98233.59;4878708;29;20666;-89
2022/11/21 02:45:44;;;;;;;33.97;4.50;;;;;;;8.26;100.00;98214.16;4888024;29;20044;-88
2022/11/21 02:48:11;;;;;;;32.38;5.35;;;;;;;8.31;100.00;98206.53;4880404;29;20025;-89
2022/11/21 02:50:39;;;;;;;34.88;4.65;;;;;;;8.32;100.00;98205.50;4880069;29;20101;-89
2022/11/21 02:53:07;;;;;;;31.85;5.40;;;;;;;8.35;100.00;98193.78;4879892;29;20036;-89
2022/11/21 02:55:34;;;;;;;32.38;4.70;;;;;;;8.32;100.00;98166.84;4880695;29;20059;-88
2022/11/21 02:58:00;;;;;;;42.88;5.50;;;;;;;8.36;100.00;98167.28;4879417;29;20032;-89
2022/11/21 03:00:26;;;;;;;35.58;4.68;;;;;;;8.35;100.00;98155.13;4860776;29;20043;-89
2022/11/21 03:02:54;;;;;;;45.05;5.35;;;;;;;8.38;100.00;98146.03;4864201;29;20040;-89
2022/11/21 03:05:21;;;;;;;37.08;4.88;;;;;;;8.46;100.00;98131.97;4879696;29;20032;-88
2022/11/21 03:07:47;;;;;;;33.80;4.88;;;;;;;8.42;100.00;98131.50;4863014;29;20033;-88
2022/11/21 03:10:14;;;;;;;36.58;4.70;;;;;;;8.45;100.00;98133.78;4888765;29;20048;-90
2022/11/21 03:12:41;;;;;;;28.50;4.70;;;;;;;8.49;100.00;98105.25;4879791;29;20133;-91
2022/11/21 03:15:10;;;;;;;35.13;5.53;;;;;;;8.50;100.00;98104.25;4879182;29;20028;-89
2022/11/21 03:17:36;;;;;;;31.45;4.82;;;;;;;8.50;100.00;98096.34;4880249;29;20032;-89
2022/11/21 03:20:04;;;;;;;31.73;4.45;;;;;;;8.52;100.00;98087.25;4864040;29;20036;-88
2022/11/21 03:22:31;;;;;;;34.45;6.50;;;;;;;8.52;100.00;98078.56;4910801;29;20051;-90
2022/11/21 03:24:56;;;;;;;50.53;6.20;;;;;;;8.53;100.00;98078.34;4865914;29;20041;-90
2022/11/21 03:27:22;;;;;;;24.83;4.65;;;;;;;8.52;100.00;98075.91;4907242;29;20093;-90
2022/11/21 03:29:48;;;;;;;50.40;6.35;;;;;;;8.54;100.00;98050.19;4880314;29;20040;-88
2022/11/21 03:32:13;;;;;;;27.65;4.25;;;;;;;8.51;100.00;98038.22;4878552;29;20025;-88
2022/11/21 03:34:39;;;;;;;27.58;3.60;;;;;;;8.51;100.00;98021.63;4878383;29;20033;-90
2022/11/21 03:37:05;;;;;;;24.58;4.07;;;;;;;8.50;100.00;97999.75;4866379;29;20032;-92
2022/11/21 03:39:31;;;;;;;34.00;5.97;;;;;;;8.52;100.00;98000.34;4866122;29;20069;-90
2022/11/21 03:41:57;;;;;;;25.23;4.38;;;;;;;8.51;100.00;98005.81;4882187;29;20048;-89
2022/11/21 03:44:23;;;;;;;24.13;3.95;;;;;;;8.48;100.00;97996.50;4898456;29;20041;-89
2022/11/21 03:46:49;;;;;;;28.30;3.85;;;;;;;8.45;100.00;97975.81;4882142;29;20044;-90
2022/11/21 03:49:15;;;;;;;29.35;4.32;;;;;;;8.45;100.00;97960.03;4883280;29;20124;-91
2022/11/21 03:51:42;;;;;;;30.83;4.07;;;;;;;8.48;100.00;97967.53;4882301;29;20473;-90
2022/11/21 03:54:08;;;;;;;29.00;3.92;;;;;;;8.48;100.00;97962.25;4866966;29;20088;-89
2022/11/21 03:56:34;;;;;;;21.08;3.42;;;;;;;8.47;100.00;97949.28;4867598;29;20032;-90
2022/11/21 03:59:01;;;;;;;20.35;3.00;;;;;;;8.46;100.00;97945.06;4867704;29;20025;-91
2022/11/21 04:01:27;;;;;;;16.70;3.08;;;;;;;8.43;100.00;97931.25;4881494;29;20456;-90
2022/11/21 04:03:53;;;;;;;18.98;3.15;;;;;;;8.41;100.00;97900.84;4898563;29;20100;-91
2022/11/21 04:06:21;;;;;;;22.55;3.78;;;;;;;8.40;100.00;97901.88;4898145;29;20566;-90
2022/11/21 04:08:47;;;;;;;20.35;3.33;;;;;;;8.37;100.00;97889.91;4864910;29;20040;-90
2022/11/21 04:11:13;;;;;;;19.02;2.55;;;;;;;8.34;100.00;97881.59;4882190;29;20369;-89
2022/11/21 04:13:38;;;;;;;22.13;3.17;;;;;;;8.34;100.00;97876.31;4864403;29;20033;-89
2022/11/21 04:16:05;;;;;;;23.98;3.13;;;;;;;8.35;100.00;97870.88;4874515;29;20136;-89
2022/11/21 04:18:32;;;;;;;13.50;3.08;;;;;;;8.34;100.00;97860.53;4881777;29;20493;-91
2022/11/21 04:21:03;;;;;;;20.20;2.60;;;;;;;8.42;100.00;97863.84;4882491;29;20045;-89
2022/11/21 04:23:29;;;;;;;19.08;2.63;;;;;;;8.36;100.00;97851.41;4882552;29;20033;-90
2022/11/21 04:25:55;;;;;;;18.73;2.05;;;;;;;8.36;100.00;97843.53;4867413;29;20383;-90
2022/11/21 04:28:21;;;;;;;20.27;2.55;;;;;;;8.38;100.00;97848.59;4866130;29;20084;-90
2022/11/21 04:30:47;;;;;;;16.70;1.67;;;;;;;8.36;100.00;97832.19;4882088;29;20032;-91
2022/11/21 04:33:15;;;;;;;15.23;1.95;;;;;;;8.36;100.00;97829.56;4878943;29;20097;-89
2022/11/21 04:35:42;;;;;;;17.00;1.88;;;;;;;8.35;100.00;97820.03;4858484;29;20120;-89
2022/11/21 04:38:07;;;;;;;14.60;2.50;;;;;;;8.31;100.00;97817.78;4881819;29;20040;-89
2022/11/21 04:40:34;;;;;;;12.88;1.73;;;;;;;8.28;100.00;97802.38;4865987;29;20043;-89
2022/11/21 04:42:59;;;;;;;11.65;2.28;;;;;;;8.24;100.00;97795.09;4864211;29;20033;-89
2022/11/21 04:45:25;;;;;;;15.40;1.92;;;;;;;8.21;100.00;97788.41;4873987;29;20025;-90
2022/11/21 04:47:51;;;;;;;12.75;1.60;;;;;;;8.21;100.00;97798.09;4881863;29;20496;-91
2022/11/21 04:50:18;;;;;;;17.30;2.15;;;;;;;8.18;100.00;97792.25;4866103;29;20040;-90
2022/11/21 04:52:54;;;;;;;16.02;2.15;;;;;;;8.24;100.00;97777.47;4882442;29;20507;-90
2022/11/21 04:55:22;;;;;;;13.00;1.73;;;;;;;8.25;100.00;97778.31;4882967;29;20111;-91
2022/11/21 04:57:49;;;;;;;15.93;1.77;;;;;;;8.25;100.00;97768.56;4881722;29;20043;-91
2022/11/21 05:00:16;;;;;;;12.73;2.40;;;;;;;8.25;100.00;97771.19;4866978;29;20112;-89
2022/11/21 05:02:42;;;;;;;13.00;2.05;;;;;;;8.26;100.00;97756.22;4881935;29;20032;-89
2022/11/21 05:05:08;;;;;;;15.55;2.13;;;;;;;8.24;100.00;97756.44;4880692;29;20120;-89
2022/11/21 05:07:34;;;;;;;10.70;1.20;;;;;;;8.24;100.00;97742.44;4881749;29;20043;-90
2022/11/21 05:10:00;;;;;;;9.45;1.50;;;;;;;8.22;100.00;97752.38;4881507;29;20079;-90
2022/11/21 05:15:12;;;;;;;8.40;1.08;;;;;;;8.20;100.00;97739.41;4897729;29;20043;-89
2022/11/21 05:17:38;;;;;;;9.05;1.45;;;;;;;8.23;100.00;97738.22;4879030;29;20132;-90
2022/11/21 05:20:04;;;;;;;15.57;2.05;;;;;;;8.22;100.00;97724.22;4881132;29;20084;-90
2022/11/21 05:22:29;;;;;;;13.45;1.85;;;;;;;8.19;100.00;97714.91;4896826;29;20040;-89
2022/11/21 05:24:55;;;;;;;13.55;1.85;;;;;;;8.21;100.00;97720.00;4866331;29;20504;-90
2022/11/21 05:27:21;;;;;;;15.23;1.92;;;;;;;8.17;100.00;97695.88;4882549;29;20033;-90
2022/11/21 05:29:46;;;;;;;12.55;1.50;;;;;;;8.18;100.00;97702.78;4865618;29;20127;-89
2022/11/21 05:32:12;;;;;;;7.80;1.25;;;;;;;8.15;100.00;97712.88;4863022;29;20044;-88
2022/11/21 05:34:38;;;;;;;12.63;2.00;;;;;;;8.15;100.00;97708.44;4865516;29;20040;-89
2022/11/21 05:37:04;;;;;;;8.80;1.13;;;;;;;8.12;100.00;97700.13;4881965;29;20043;-91
2022/11/21 05:39:30;;;;;;;10.82;1.77;;;;;;;8.14;100.00;97698.91;4881462;29;20416;-90
2022/11/21 05:41:55;;;;;;;7.82;1.13;;;;;;;8.12;100.00;97687.75;4896852;29;20044;-90
2022/11/21 05:44:21;;;;;;;7.35;1.40;;;;;;;8.11;100.00;97690.59;4866814;29;20040;-89
2022/11/21 05:46:47;;;;;;;4.72;0.75;;;;;;;8.11;100.00;97682.69;4881247;29;20055;-89
2022/11/21 05:49:13;;;;;;;4.38;0.75;;;;;;;8.09;100.00;97685.53;4896700;29;20540;-89
2022/11/21 05:51:38;;;;;;;5.88;0.98;;;;;;;8.10;100.00;97683.72;4881348;29;20033;-90
2022/11/21 05:54:04;;;;;;;10.60;0.95;;;;;;;8.07;100.00;97659.41;4865919;29;20034;-90
2022/11/21 05:56:30;;;;;;;6.78;0.93;;;;;;;8.12;100.00;97674.59;4879734;29;20378;-89
2022/11/21 05:58:57;;;;;;;5.32;0.75;;;;;;;8.15;100.00;97655.81;4881183;29;20033;-90
2022/11/21 06:04:09;;;;;;;5.50;1.10;;;;;;;8.15;100.00;97658.44;4882537;29;20042;-89
2022/11/21 06:06:35;;;;;;;10.07;1.27;;;;;;;8.16;100.00;97639.00;4882240;29;20100;-89
2022/11/21 06:09:02;;;;;;;13.23;1.58;;;;;;;8.14;100.00;97654.19;4882367;29;20044;-90
2022/11/21 06:11:28;;;;;;;11.25;1.73;;;;;;;8.16;100.00;97643.44;4865355;29;20596;-89
2022/11/21 06:13:54;;;;;;;11.02;1.95;;;;;;;8.17;100.00;97640.63;4911948;29;20032;-90
2022/11/21 06:16:20;;;;;;;13.65;2.33;;;;;;;8.18;100.00;97629.09;4880683;29;20033;-90
2022/11/21 06:18:48;;;;;;;16.00;1.90;;;;;;;8.19;100.00;97619.38;4869360;29;20120;-89
2022/11/21 06:21:25;;;;;;;15.10;3.08;;;;;;;8.21;100.00;97606.84;4896667;29;20104;-89
2022/11/21 06:23:53;;;;;;;13.20;1.65;;;;;;;8.18;100.00;97594.91;4857668;29;20040;-90
2022/11/21 06:26:21;;;;;;;17.55;2.38;;;;;;;8.19;100.00;97588.63;4881800;29;20036;-90
2022/11/21 06:28:48;;;;;;;19.98;2.58;;;;;;;8.22;100.00;97587.41;4881228;29;20560;-89
2022/11/21 06:31:25;;;;;;;17.23;1.88;;;;;;;8.24;100.00;97574.88;4866694;29;20047;-89
2022/11/21 06:33:57;;;;;;;13.00;1.63;;;;;;;8.25;100.00;97570.41;4898652;29;20040;-90
2022/11/21 06:36:23;;;;;;;14.98;1.85;;;;;;;8.22;100.00;97568.97;4908737;29;20135;-90
2022/11/21 06:38:49;;;;;;;14.00;1.73;;;;;;;8.23;100.00;97573.25;4888355;29;20131;-89
2022/11/21 06:41:21;;;;;;;16.92;2.17;;;;;;;8.27;100.00;97577.09;4892904;29;20127;-90
2022/11/21 06:43:47;;;;;;;20.35;1.63;;;;;;;8.24;100.00;97566.16;4893275;29;20040;-90
2022/11/21 06:46:14;;;;;;;13.18;1.27;;;;;;;8.26;100.00;97572.03;4875333;29;20104;-89
2022/11/21 06:48:41;;;;;;;16.05;1.85;;;;;;;8.23;100.00;97570.63;4858573;29;20068;-90
2022/11/21 06:51:19;;;;;;;14.85;1.40;;;;;;;8.26;100.00;97572.03;4885262;29;20084;-89
2022/11/21 06:53:47;;;;;;;10.07;1.40;;;;;;;8.24;100.00;97566.97;4879302;29;20036;-90
2022/11/21 06:56:14;;;;;;;7.07;1.40;;;;;;;8.23;100.00;97556.66;4855608;29;20084;-89
2022/11/21 06:58:39;;;;;;;5.88;1.20;;;;;;;8.19;100.00;97549.16;4878977;29;20067;-90
2022/11/21 07:01:07;;;;;;;8.07;1.17;;;;;;;8.21;100.00;97548.94;4895800;29;20119;-89
2022/11/21 07:03:34;;;;;;;9.43;1.45;;;;;;;8.22;100.00;97545.31;4880254;29;20039;-89
2022/11/21 07:06:01;;;;;;;5.82;0.80;;;;;;;8.22;100.00;97540.03;4880385;29;20043;-89
2022/11/21 07:08:28;;;;;;;8.13;1.10;;;;;;;8.21;100.00;97540.25;4878624;29;20152;-90
2022/11/21 07:10:55;;;;;;;0.82;0.20;;;;;;;8.02;100.00;97532.13;4895511;29;20036;-90
2022/11/21 07:13:21;;;;;;;2.08;0.20;;;;;;;7.85;100.00;97534.31;4863750;29;20036;-90
2022/11/21 07:15:49;;;;;;;1.70;0.40;;;;;;;7.73;100.00;97534.91;4863078;29;20514;-90
2022/11/21 07:18:15;;;;;;;3.97;0.20;;;;;;;7.66;100.00;97534.09;4874809;29;20382;-90
2022/11/21 07:20:40;;;;;;;4.55;0.32;;;;;;;7.60;100.00;97519.09;4884727;29;20049;-90
2022/11/21 07:23:07;;;;;;;3.25;0.50;;;;;;;7.52;100.00;97527.94;4865211;29;20043;-90
2022/11/21 07:25:33;;;;;;;3.28;0.20;;;;;;;7.46;100.00;97521.66;4873458;29;20064;-89
2022/11/21 07:28:00;;;;;;;2.15;0.50;;;;;;;7.48;100.00;97521.47;4895094;29;20088;-90
2022/11/21 07:30:26;;;;;;;1.15;0.30;;;;;;;7.46;100.00;97521.66;4893558;29;20131;-89
2022/11/21 07:33:00;;;;;;;3.30;0.32;;;;;;;7.45;100.00;97520.06;4877392;29;20107;-90
2022/11/21 07:35:27;;;;;;;4.32;0.45;;;;;;;7.36;100.00;97510.72;4881793;29;20473;-90
2022/11/21 07:37:53;;;;;;;2.47;0.40;;;;;;;7.24;100.00;97518.34;4863666;29;20073;-89
2022/11/21 07:40:19;;;;;;;5.47;0.47;;;;;;;7.10;100.00;97510.41;4895255;29;20083;-90
2022/11/21 07:42:45;;;;;;;5.95;0.70;;;;;;;6.93;100.00;97500.22;4879692;29;20389;-90
2022/11/21 07:45:12;;;;;;;2.83;0.50;;;;;;;6.85;100.00;97507.44;4890979;29;20474;-91
2022/11/21 07:47:39;;;;;;;4.88;0.47;;;;;;;6.83;100.00;97499.78;4876576;29;20044;-90
2022/11/21 07:50:05;;;;;;;2.05;0.50;;;;;;;6.76;100.00;97519.91;4863133;29;20160;-89
2022/11/21 07:52:31;;;;;;;6.13;0.70;;;;;;;6.72;100.00;97522.09;4861031;29;20057;-89
2022/11/21 07:54:57;;;;;;;6.97;0.73;;;;;;;6.72;100.00;97529.19;4876626;29;20067;-90
2022/11/21 07:57:23;;;;;;;4.72;0.85;;;;;;;6.68;100.00;97526.13;4878033;29;20041;-90
2022/11/21 07:59:49;;;;;;;7.75;0.98;;;;;;;6.67;100.00;97529.75;4875990;29;20040;-89
2022/11/21 08:02:23;;;;;;;6.68;0.80;;;;;;;6.71;100.00;97533.59;4858278;29;20048;-89
2022/11/21 08:04:49;;;;;;;7.32;0.80;;;;;;;6.70;100.00;97543.28;4860230;29;20096;-89
2022/11/21 08:07:16;;;;;;;5.82;1.15;;;;;;;6.71;100.00;97536.22;4875989;29;20359;-88
2022/11/21 08:09:42;;;;;;;5.90;0.88;;;;;;;6.72;100.00;97529.97;4890432;29;20528;-89
2022/11/21 08:12:09;;;;;;;12.38;1.20;;;;;;;6.72;100.00;97534.44;4879350;29;20060;-89
2022/11/21 08:14:35;;;;;;;13.07;1.38;;;;;;;6.71;100.00;97544.09;4878903;29;20036;-89
2022/11/21 08:17:02;;;;;;;8.57;1.30;;;;;;;6.66;100.00;97542.06;4877747;29;20092;-90
2022/11/21 08:19:28;;;;;;;4.35;0.70;;;;;;;6.59;100.00;97530.72;4892206;29;20453;-89
2022/11/21 08:21:54;;;;;;;2.35;0.77;;;;;;;6.53;100.00;97532.25;4866175;29;20067;-90
2022/11/21 08:24:20;;;;;;;9.23;1.00;;;;;;;6.47;100.00;97530.41;4882652;29;20045;-89
2022/11/21 08:26:45;;;;;;;4.53;0.80;;;;;;;6.49;100.00;97545.97;4868239;29;20067;-89
2022/11/21 08:29:14;;;;;;;7.90;1.02;;;;;;;6.49;100.00;97567.78;4884349;29;20473;-89
2022/11/21 08:31:40;;;;;;;7.15;1.48;;;;;;;6.47;100.00;97572.38;4864007;29;20037;-90
2022/11/21 08:34:06;;;;;;;6.72;0.80;;;;;;;6.50;100.00;97574.63;4901154;29;20057;-89
2022/11/21 08:36:32;;;;;;;4.97;1.30;;;;;;;6.46;100.00;97568.16;4878743;29;20052;-89
2022/11/21 08:38:58;;;;;;;8.23;1.08;;;;;;;6.39;100.00;97562.84;4875568;29;20045;-89
2022/11/21 08:44:08;;;;;;;6.40;0.80;;;;;;;6.37;100.00;97566.66;4897187;29;20040;-90
2022/11/21 08:46:36;;;;;;;7.65;0.85;;;;;;;6.30;100.00;97570.03;4882557;29;20541;-89
2022/11/21 08:49:06;;;;;;;11.88;1.30;;;;;;;6.36;100.00;97578.13;4895434;29;20054;-91
2022/11/21 08:51:32;;;;;;;8.60;1.13;;;;;;;6.34;100.00;97580.94;4881922;29;20163;-90
2022/11/21 08:53:58;;;;;;;7.30;0.98;;;;;;;6.33;100.00;97581.97;4881159;29;20413;-89
2022/11/21 08:56:24;;;;;;;7.88;1.48;;;;;;;6.33;100.00;97577.53;4866097;29;20032;-90
2022/11/21 08:58:50;;;;;;;6.63;1.30;;;;;;;6.36;100.00;97586.81;4882386;29;20051;-90
2022/11/21 09:01:16;;;;;;;8.50;1.13;;;;;;;6.39;100.00;97588.25;4879628;29;20025;-89
2022/11/21 09:03:41;;;;;;;9.20;2.13;;;;;;;6.44;100.00;97605.06;4892480;29;20036;-88
2022/11/21 09:06:07;;;;;;;13.68;2.08;;;;;;;6.49;100.00;97601.06;4894150;29;20033;-89
2022/11/21 09:08:33;;;;;;;8.93;1.73;;;;;;;6.49;100.00;97601.88;4877235;29;20039;-88
2022/11/21 09:11:04;;;;;;;16.65;2.15;;;;;;;6.54;100.00;97602.13;4887229;29;20107;-89
2022/11/21 09:13:30;;;;;;;21.63;2.85;;;;;;;6.54;100.00;97601.31;4879613;29;20032;-89
2022/11/21 09:18:44;;;;;;;8.80;0.95;;;;;;;6.56;100.00;97621.09;4882479;29;20036;-89
2022/11/21 09:21:14;;;;;;;11.18;1.17;;;;;;;6.62;100.00;97618.75;4882214;29;20111;-89
2022/11/21 09:23:40;;;;;;;9.98;1.60;;;;;;;6.62;100.00;97624.00;4897539;29;20040;-89
2022/11/21 09:26:06;;;;;;;13.57;1.33;;;;;;;6.59;100.00;97614.69;4860275;29;20072;-90
2022/11/21 09:28:32;;;;;;;14.95;2.13;;;;;;;6.62;100.00;97603.81;4882196;29;20036;-89
2022/11/21 09:30:57;;;;;;;9.68;1.75;;;;;;;6.61;100.00;97604.78;4897608;29;20039;-88
2022/11/21 09:33:23;;;;;;;8.82;1.58;;;;;;;6.63;100.00;97604.59;4879750;29;20068;-90
2022/11/21 09:35:49;;;;;;;10.95;2.28;;;;;;;6.65;100.00;97605.25;4882026;29;20036;-89
2022/11/21 09:38:14;;;;;;;19.02;3.40;;;;;;;6.68;100.00;97600.44;4881240;29;20556;-88
2022/11/21 09:40:43;;;;;;;15.23;2.40;;;;;;;6.67;100.00;97606.66;4876406;29;20044;-89
2022/11/21 09:43:34;;;;;;;12.07;2.30;;;;;;;6.67;100.00;97606.66;4866962;29;20028;-89
2022/11/21 09:46:14;;;;;;;11.20;2.05;;;;;;;6.66;100.00;97612.91;4864503;29;20099;-90
2022/11/21 09:48:57;;;;;;;12.55;1.48;;;;;;;6.66;100.00;97599.81;4895012;29;20032;-90
2022/11/21 09:51:27;;;;;;;13.27;3.35;;;;;;;6.66;100.00;97596.34;4894400;29;20121;-89
2022/11/21 09:54:10;;;;;;;8.82;1.00;;;;;;;6.65;100.00;97613.94;4878254;29;20618;-90
2022/11/21 09:56:40;;;;;;;12.00;2.08;;;;;;;6.66;100.00;97617.34;4898571;29;20029;-90
2022/11/21 09:59:23;;;;;;;8.95;1.70;;;;;;;6.66;100.00;97615.53;4865696;29;20032;-89
2022/11/21 10:01:50;;;;;;;10.07;1.83;;;;;;;6.68;100.00;97613.56;4851546;29;20040;-90
2022/11/21 10:04:16;;;;;;;12.52;1.65;;;;;;;6.73;100.00;97614.78;4902365;29;20139;-89
2022/11/21 10:06:48;;;;;;;10.80;1.95;;;;;;;6.78;100.00;97620.28;4879876;29;20533;-89
2022/11/21 10:09:30;;;;;;;9.50;1.48;;;;;;;6.76;100.00;97623.09;4866349;29;20359;-90
2022/11/21 10:15:23;;;;;;;13.95;2.33;;;;;;;6.69;100.00;97614.34;4880477;29;20045;-90
2022/11/21 10:18:17;;;;;;;13.80;1.20;;;;;;;6.63;100.00;97625.59;4874780;29;20041;-89
2022/11/21 10:21:01;;;;;;;9.98;2.35;;;;;;;6.59;100.00;97622.56;4880246;29;20056;-90
2022/11/21 10:23:32;;;;;;;9.57;1.85;;;;;;;6.64;100.00;97630.66;4866700;29;20040;-90
2022/11/21 10:26:16;;;;;;;13.85;1.42;;;;;;;6.73;100.00;97625.28;4874170;29;20087;-90
2022/11/21 10:28:44;;;;;;;12.15;1.92;;;;;;;6.81;100.00;97630.41;4846758;29;20144;-90
2022/11/21 10:31:12;;;;;;;10.63;1.77;;;;;;;6.95;100.00;97628.69;4904336;29;20139;-89
2022/11/21 10:33:39;;;;;;;22.70;1.98;;;;;;;7.07;100.00;97619.28;4880081;29;20147;-89
2022/11/21 10:36:11;;;;;;;8.40;1.65;;;;;;;7.15;100.00;97614.91;4864085;29;20440;-89
2022/11/21 10:38:40;;;;;;;13.52;2.13;;;;;;;7.12;100.00;97617.91;4880244;29;20477;-89
2022/11/21 10:41:14;;;;;;;6.35;0.73;;;;;;;7.14;100.00;97608.81;4880206;29;20028;-92
2022/11/21 10:46:33;;;;;;;9.32;1.63;;;;;;;7.05;100.00;97608.19;4887590;29;20035;-91
2022/11/21 10:49:00;;;;;;;6.38;1.00;;;;;;;7.05;100.00;97613.44;4879691;29;20044;-90
2022/11/21 10:51:48;;;;;;;4.82;0.70;;;;;;;7.08;100.00;97620.09;4861477;29;20061;-90
2022/11/21 10:54:32;;;;;;;5.43;1.00;;;;;;;7.09;100.00;97624.34;4895181;29;20028;-92
2022/11/21 10:57:14;;;;;;;6.65;0.95;;;;;;;7.14;100.00;97621.97;4879999;29;20101;-93
2022/11/21 10:59:40;;;;;;;9.98;1.27;;;;;;;7.07;100.00;97621.91;4879715;29;20044;-90
2022/11/21 11:02:13;;;;;;;8.50;1.50;;;;;;;7.06;100.00;97619.47;4880105;29;20032;-91
2022/11/21 11:04:39;;;;;;;8.68;1.40;;;;;;;7.02;100.00;97619.06;4877848;29;20044;-92
2022/11/21 11:07:27;;;;;;;10.80;1.10;;;;;;;7.07;100.00;97618.50;4862216;29;20024;-90
2022/11/21 11:10:14;;;;;;;8.60;1.30;;;;;;;7.12;100.00;97623.97;4888130;29;20044;-90
2022/11/21 11:15:26;;;;;;;13.73;1.95;;;;;;;7.14;100.00;97619.34;4878267;29;20068;-90
2022/11/21 11:17:55;;;;;;;5.25;1.08;;;;;;;7.19;100.00;97621.38;4863939;29;20099;-92
2022/11/21 11:20:35;;;;;;;13.13;2.20;;;;;;;7.23;100.00;97621.81;4879219;29;20131;-89
2022/11/21 11:23:24;;;;;;;8.02;1.42;;;;;;;7.26;100.00;97618.81;4875951;29;20076;-90
2022/11/21 11:25:53;;;;;;;7.90;0.95;;;;;;;7.34;100.00;97616.03;4894910;29;20413;-90
2022/11/21 11:28:19;;;;;;;5.00;0.80;;;;;;;7.36;100.00;97619.25;4892443;29;20048;-91
2022/11/21 11:30:46;;;;;;;4.68;0.90;;;;;;;7.36;100.00;97613.22;4864279;29;20116;-89
2022/11/21 11:33:38;;;;;;;10.38;1.23;;;;;;;7.38;100.00;97614.63;4865273;29;20033;-90
2022/11/21 11:36:37;;;;;;;12.90;1.02;;;;;;;7.48;100.00;97606.41;4904765;29;20099;-90
2022/11/21 11:39:44;;;;;;;4.93;0.77;;;;;;;7.50;100.00;97614.88;4871821;29;20191;-91
2022/11/21 11:48:10;;;;;;;2.30;0.68;;;;;;;7.34;100.00;97616.03;4860433;29;20127;-91
2022/11/21 11:50:50;;;;;;;3.92;1.00;;;;;;;7.22;100.00;97615.75;4860478;29;20613;-91
2022/11/21 11:53:22;;;;;;;7.45;1.10;;;;;;;7.12;100.00;97613.44;4891965;29;20047;-89
2022/11/21 11:55:52;;;;;;;6.97;1.00;;;;;;;7.10;100.00;97609.41;4879602;29;20032;-90
2022/11/21 11:58:28;;;;;;;7.88;1.00;;;;;;;7.06;100.00;97604.53;4880745;29;20037;-90
2022/11/21 12:01:20;;;;;;;7.32;1.42;;;;;;;7.12;100.00;97602.16;4880620;29;20028;-89
2022/11/21 12:04:02;;;;;;;9.30;1.30;;;;;;;7.17;100.00;97595.31;4882051;29;20032;-90